sensor_id;sensor_type;location;lat;lon;timestamp;pressure;altitude;pressure_sealevel;temperature;humidity
23303;BME280;11820;48.738;9.092;2022-07-05T00:02:20;96582.56;;;19.77;nan
23303;BME280;11820;48.738;9.092;2022-07-05T00:04:45;96585.44;;;19.55;nan
23303;BME280;11820;48.738;9.092;2022-07-05T00:07:11;96579.47;;;19.43;nan
23303;BME280;11820;48.738;9.092;2022-07-05T00:09:50;96581.28;;;18.93;nan
23303;BME280;11820;48.738;9.092;2022-07-05T00:12:16;96579.00;;;19.29;nan
23303;BME280;11820;48.738;9.092;2022-07-05T00:14:43;96579.47;;;19.43;nan
23303;BME280;11820;48.738;9.092;2022-07-05T00:17:09;96579.63;;;19.36;nan
23303;BME280;11820;48.738;9.092;2022-07-05T00:19:35;96578.59;;;19.37;nan
23303;BME280;11820;48.738;9.092;2022-07-05T00:22:00;96577.75;;;19.32;nan
23303;BME280;11820;48.738;9.092;2022-07-05T00:24:26;96575.69;;;19.34;nan
23303;BME280;11820;48.738;9.092;2022-07-05T00:26:52;96579.13;;;19.06;nan
23303;BME280;11820;48.738;9.092;2022-07-05T00:29:20;96580.09;;;19.50;nan
23303;BME280;11820;48.738;9.092;2022-07-05T00:31:46;96577.41;;;19.45;nan
23303;BME280;11820;48.738;9.092;2022-07-05T00:34:11;96576.28;;;19.41;nan
23303;BME280;11820;48.738;9.092;2022-07-05T00:36:36;96564.16;;;19.35;nan
23303;BME280;11820;48.738;9.092;2022-07-05T00:39:03;96565.94;;;19.51;nan
23303;BME280;11820;48.738;9.092;2022-07-05T00:41:29;96562.56;;;19.71;nan
23303;BME280;11820;48.738;9.092;2022-07-05T00:43:58;96564.19;;;19.77;nan
23303;BME280;11820;48.738;9.092;2022-07-05T00:46:25;96554.44;;;19.94;nan
23303;BME280;11820;48.738;9.092;2022-07-05T00:48:52;96553.34;;;19.90;nan
23303;BME280;11820;48.738;9.092;2022-07-05T00:51:21;96556.34;;;19.99;nan
23303;BME280;11820;48.738;9.092;2022-07-05T00:53:47;96559.44;;;19.74;nan
23303;BME280;11820;48.738;9.092;2022-07-05T00:56:13;96563.59;;;19.33;nan
23303;BME280;11820;48.738;9.092;2022-07-05T00:58:39;96566.94;;;19.28;nan
23303;BME280;11820;48.738;9.092;2022-07-05T01:01:06;96561.19;;;19.31;nan
23303;BME280;11820;48.738;9.092;2022-07-05T01:03:33;96561.03;;;19.38;nan
23303;BME280;11820;48.738;9.092;2022-07-05T01:06:01;96573.22;;;19.27;nan
23303;BME280;11820;48.738;9.092;2022-07-05T01:08:27;96576.91;;;19.15;nan
23303;BME280;11820;48.738;9.092;2022-07-05T01:10:54;96569.63;;;19.33;nan
23303;BME280;11820;48.738;9.092;2022-07-05T01:13:22;96569.94;;;19.37;nan
23303;BME280;11820;48.738;9.092;2022-07-05T01:15:48;96578.78;;;18.86;nan
23303;BME280;11820;48.738;9.092;2022-07-05T01:18:14;96574.94;;;19.05;nan
23303;BME280;11820;48.738;9.092;2022-07-05T01:20:41;96578.19;;;18.96;nan
23303;BME280;11820;48.738;9.092;2022-07-05T01:23:07;96582.13;;;18.65;nan
23303;BME280;11820;48.738;9.092;2022-07-05T01:25:36;96581.25;;;18.60;nan
23303;BME280;11820;48.738;9.092;2022-07-05T01:28:03;96581.78;;;18.62;nan
23303;BME280;11820;48.738;9.092;2022-07-05T01:30:29;96577.75;;;18.71;nan
23303;BME280;11820;48.738;9.092;2022-07-05T01:32:55;96578.06;;;18.30;nan
23303;BME280;11820;48.738;9.092;2022-07-05T01:35:20;96571.31;;;18.34;nan
23303;BME280;11820;48.738;9.092;2022-07-05T01:37:50;96574.66;;;18.74;nan
23303;BME280;11820;48.738;9.092;2022-07-05T01:40:17;96574.00;;;18.67;nan
23303;BME280;11820;48.738;9.092;2022-07-05T01:42:43;96576.72;;;18.72;nan
23303;BME280;11820;48.738;9.092;2022-07-05T01:45:08;96579.66;;;18.59;nan
23303;BME280;11820;48.738;9.092;2022-07-05T01:47:42;96570.06;;;18.64;nan
23303;BME280;11820;48.738;9.092;2022-07-05T01:50:13;96575.44;;;18.30;nan
23303;BME280;11820;48.738;9.092;2022-07-05T01:52:42;96580.47;;;18.48;nan
23303;BME280;11820;48.738;9.092;2022-07-05T01:55:09;96577.97;;;18.53;nan
23303;BME280;11820;48.738;9.092;2022-07-05T01:57:34;96580.72;;;18.46;nan
23303;BME280;11820;48.738;9.092;2022-07-05T01:59:59;96575.72;;;18.45;nan
23303;BME280;11820;48.738;9.092;2022-07-05T02:02:25;96580.69;;;18.30;nan
23303;BME280;11820;48.738;9.092;2022-07-05T02:04:50;96575.19;;;18.31;nan
23303;BME280;11820;48.738;9.092;2022-07-05T02:07:15;96573.56;;;18.42;nan
23303;BME280;11820;48.738;9.092;2022-07-05T02:09:41;96574.78;;;18.51;nan
23303;BME280;11820;48.738;9.092;2022-07-05T02:12:07;96573.81;;;18.40;nan
23303;BME280;11820;48.738;9.092;2022-07-05T02:14:32;96565.22;;;18.45;nan
23303;BME280;11820;48.738;9.092;2022-07-05T02:16:57;96576.47;;;18.29;nan
23303;BME280;11820;48.738;9.092;2022-07-05T02:19:23;96567.47;;;18.25;nan
23303;BME280;11820;48.738;9.092;2022-07-05T02:21:48;96577.72;;;18.26;nan
23303;BME280;11820;48.738;9.092;2022-07-05T02:24:14;96575.75;;;18.22;nan
23303;BME280;11820;48.738;9.092;2022-07-05T02:26:39;96576.22;;;18.19;nan
23303;BME280;11820;48.738;9.092;2022-07-05T02:29:05;96576.13;;;18.14;nan
23303;BME280;11820;48.738;9.092;2022-07-05T02:31:31;96576.28;;;17.96;nan
23303;BME280;11820;48.738;9.092;2022-07-05T02:33:56;96574.41;;;18.19;nan
23303;BME280;11820;48.738;9.092;2022-07-05T02:36:23;96575.59;;;18.12;nan
23303;BME280;11820;48.738;9.092;2022-07-05T02:38:48;96574.94;;;18.05;nan
23303;BME280;11820;48.738;9.092;2022-07-05T02:41:14;96574.00;;;18.11;nan
23303;BME280;11820;48.738;9.092;2022-07-05T02:43:40;96575.53;;;18.23;nan
23303;BME280;11820;48.738;9.092;2022-07-05T02:46:07;96572.59;;;18.20;nan
23303;BME280;11820;48.738;9.092;2022-07-05T02:48:34;96584.16;;;17.96;nan
23303;BME280;11820;48.738;9.092;2022-07-05T02:51:00;96578.94;;;17.85;nan
23303;BME280;11820;48.738;9.092;2022-07-05T02:53:25;96578.81;;;17.91;nan
23303;BME280;11820;48.738;9.092;2022-07-05T02:55:51;96586.41;;;18.15;nan
23303;BME280;11820;48.738;9.092;2022-07-05T02:58:16;96584.47;;;18.11;nan
23303;BME280;11820;48.738;9.092;2022-07-05T03:00:43;96583.53;;;18.17;nan
23303;BME280;11820;48.738;9.092;2022-07-05T03:03:09;96578.09;;;18.07;nan
23303;BME280;11820;48.738;9.092;2022-07-05T03:05:34;96577.88;;;17.97;nan
23303;BME280;11820;48.738;9.092;2022-07-05T03:08:00;96580.53;;;17.86;nan
23303;BME280;11820;48.738;9.092;2022-07-05T03:10:25;96588.53;;;17.56;nan
23303;BME280;11820;48.738;9.092;2022-07-05T03:12:51;96584.44;;;17.49;nan
23303;BME280;11820;48.738;9.092;2022-07-05T03:15:16;96586.81;;;17.73;nan
23303;BME280;11820;48.738;9.092;2022-07-05T03:17:41;96587.72;;;17.56;nan
23303;BME280;11820;48.738;9.092;2022-07-05T03:20:07;96590.69;;;17.59;nan
23303;BME280;11820;48.738;9.092;2022-07-05T03:22:33;96595.56;;;17.79;nan
23303;BME280;11820;48.738;9.092;2022-07-05T03:24:58;96594.81;;;17.55;nan
23303;BME280;11820;48.738;9.092;2022-07-05T03:27:24;96593.41;;;17.64;nan
23303;BME280;11820;48.738;9.092;2022-07-05T03:29:49;96590.59;;;17.66;nan
23303;BME280;11820;48.738;9.092;2022-07-05T03:32:15;96592.75;;;17.69;nan
23303;BME280;11820;48.738;9.092;2022-07-05T03:34:40;96590.88;;;17.81;nan
23303;BME280;11820;48.738;9.092;2022-07-05T03:37:05;96596.94;;;17.58;nan
23303;BME280;11820;48.738;9.092;2022-07-05T03:39:31;96593.06;;;17.72;nan
23303;BME280;11820;48.738;9.092;2022-07-05T03:41:56;96596.03;;;17.64;nan
23303;BME280;11820;48.738;9.092;2022-07-05T03:44:22;96604.81;;;17.58;nan
23303;BME280;11820;48.738;9.092;2022-07-05T03:46:47;96609.78;;;17.60;nan
23303;BME280;11820;48.738;9.092;2022-07-05T03:49:13;96609.06;;;17.18;nan
23303;BME280;11820;48.738;9.092;2022-07-05T03:51:38;96612.38;;;17.25;nan
23303;BME280;11820;48.738;9.092;2022-07-05T03:54:03;96607.13;;;17.14;nan
23303;BME280;11820;48.738;9.092;2022-07-05T03:56:29;96610.56;;;17.26;nan
23303;BME280;11820;48.738;9.092;2022-07-05T03:58:55;96614.03;;;17.38;nan
23303;BME280;11820;48.738;9.092;2022-07-05T04:01:20;96618.09;;;17.68;nan
23303;BME280;11820;48.738;9.092;2022-07-05T04:03:46;96616.03;;;17.59;nan
23303;BME280;11820;48.738;9.092;2022-07-05T04:06:12;96616.38;;;17.39;nan
23303;BME280;11820;48.738;9.092;2022-07-05T04:08:37;96620.94;;;17.55;nan
23303;BME280;11820;48.738;9.092;2022-07-05T04:11:04;96629.94;;;17.71;nan
23303;BME280;11820;48.738;9.092;2022-07-05T04:13:29;96622.75;;;17.55;nan
23303;BME280;11820;48.738;9.092;2022-07-05T04:15:54;96637.88;;;16.89;nan
23303;BME280;11820;48.738;9.092;2022-07-05T04:18:21;96641.69;;;17.16;nan
23303;BME280;11820;48.738;9.092;2022-07-05T04:20:47;96644.94;;;17.64;nan
23303;BME280;11820;48.738;9.092;2022-07-05T04:23:12;96649.56;;;17.27;nan
23303;BME280;11820;48.738;9.092;2022-07-05T04:25:38;96644.22;;;17.34;nan
23303;BME280;11820;48.738;9.092;2022-07-05T04:28:03;96649.94;;;17.42;nan
23303;BME280;11820;48.738;9.092;2022-07-05T04:30:29;96649.25;;;17.35;nan
23303;BME280;11820;48.738;9.092;2022-07-05T04:32:54;96648.91;;;17.43;nan
23303;BME280;11820;48.738;9.092;2022-07-05T04:35:20;96650.25;;;17.34;nan
23303;BME280;11820;48.738;9.092;2022-07-05T04:37:45;96656.63;;;17.38;nan
23303;BME280;11820;48.738;9.092;2022-07-05T04:40:12;96650.84;;;17.59;nan
23303;BME280;11820;48.738;9.092;2022-07-05T04:42:37;96646.09;;;17.68;nan
23303;BME280;11820;48.738;9.092;2022-07-05T04:45:04;96648.69;;;17.56;nan
23303;BME280;11820;48.738;9.092;2022-07-05T04:47:29;96645.72;;;17.64;nan
23303;BME280;11820;48.738;9.092;2022-07-05T04:49:55;96655.63;;;17.85;nan
23303;BME280;11820;48.738;9.092;2022-07-05T04:52:25;96649.38;;;17.86;nan
23303;BME280;11820;48.738;9.092;2022-07-05T04:54:51;96659.59;;;17.99;nan
23303;BME280;11820;48.738;9.092;2022-07-05T04:57:16;96659.03;;;17.97;nan
23303;BME280;11820;48.738;9.092;2022-07-05T04:59:42;96657.22;;;17.75;nan
23303;BME280;11820;48.738;9.092;2022-07-05T05:02:07;96657.44;;;17.96;nan
23303;BME280;11820;48.738;9.092;2022-07-05T05:04:33;96657.88;;;18.04;nan
23303;BME280;11820;48.738;9.092;2022-07-05T05:06:58;96660.59;;;17.98;nan
23303;BME280;11820;48.738;9.092;2022-07-05T05:09:24;96664.72;;;17.94;nan
23303;BME280;11820;48.738;9.092;2022-07-05T05:11:49;96658.34;;;18.01;nan
23303;BME280;11820;48.738;9.092;2022-07-05T05:14:15;96651.63;;;18.05;nan
23303;BME280;11820;48.738;9.092;2022-07-05T05:16:40;96644.09;;;18.09;nan
23303;BME280;11820;48.738;9.092;2022-07-05T05:19:06;96657.56;;;18.01;nan
23303;BME280;11820;48.738;9.092;2022-07-05T05:21:31;96652.03;;;18.25;nan
23303;BME280;11820;48.738;9.092;2022-07-05T05:23:57;96651.75;;;18.50;nan
23303;BME280;11820;48.738;9.092;2022-07-05T05:26:22;96648.13;;;18.51;nan
23303;BME280;11820;48.738;9.092;2022-07-05T05:28:48;96652.06;;;18.65;nan
23303;BME280;11820;48.738;9.092;2022-07-05T05:31:13;96655.72;;;18.64;nan
23303;BME280;11820;48.738;9.092;2022-07-05T05:33:39;96658.97;;;18.71;nan
23303;BME280;11820;48.738;9.092;2022-07-05T05:36:05;96652.16;;;18.70;nan
23303;BME280;11820;48.738;9.092;2022-07-05T05:38:30;96662.38;;;18.55;nan
23303;BME280;11820;48.738;9.092;2022-07-05T05:40:55;96661.25;;;18.79;nan
23303;BME280;11820;48.738;9.092;2022-07-05T05:43:21;96662.22;;;18.89;nan
23303;BME280;11820;48.738;9.092;2022-07-05T05:45:46;96666.53;;;18.95;nan
23303;BME280;11820;48.738;9.092;2022-07-05T05:48:12;96661.78;;;19.09;nan
23303;BME280;11820;48.738;9.092;2022-07-05T05:50:38;96666.66;;;19.17;nan
23303;BME280;11820;48.738;9.092;2022-07-05T05:53:06;96669.44;;;19.27;nan
23303;BME280;11820;48.738;9.092;2022-07-05T05:55:32;96668.53;;;19.33;nan
23303;BME280;11820;48.738;9.092;2022-07-05T05:58:15;96659.63;;;19.50;nan
23303;BME280;11820;48.738;9.092;2022-07-05T06:00:42;96673.13;;;19.59;nan
23303;BME280;11820;48.738;9.092;2022-07-05T06:03:07;96665.81;;;19.61;nan
23303;BME280;11820;48.738;9.092;2022-07-05T06:05:32;96670.97;;;19.72;nan
23303;BME280;11820;48.738;9.092;2022-07-05T06:07:58;96679.25;;;19.80;nan
23303;BME280;11820;48.738;9.092;2022-07-05T06:10:26;96676.81;;;19.95;nan
23303;BME280;11820;48.738;9.092;2022-07-05T06:12:52;96674.06;;;20.02;nan
23303;BME280;11820;48.738;9.092;2022-07-05T06:15:19;96679.88;;;19.87;nan
23303;BME280;11820;48.738;9.092;2022-07-05T06:17:45;96678.03;;;19.88;nan
23303;BME280;11820;48.738;9.092;2022-07-05T06:20:16;96686.00;;;19.76;nan
23303;BME280;11820;48.738;9.092;2022-07-05T06:22:41;96684.84;;;19.89;nan
23303;BME280;11820;48.738;9.092;2022-07-05T06:25:08;96687.75;;;19.87;nan
23303;BME280;11820;48.738;9.092;2022-07-05T06:27:47;96692.38;;;19.80;nan
23303;BME280;11820;48.738;9.092;2022-07-05T06:30:15;96687.28;;;20.28;nan
23303;BME280;11820;48.738;9.092;2022-07-05T06:32:42;96690.03;;;20.17;nan
23303;BME280;11820;48.738;9.092;2022-07-05T06:35:08;96695.53;;;20.15;nan
23303;BME280;11820;48.738;9.092;2022-07-05T06:37:48;96691.84;;;20.16;nan
23303;BME280;11820;48.738;9.092;2022-07-05T06:40:17;96689.28;;;20.21;nan
23303;BME280;11820;48.738;9.092;2022-07-05T06:42:42;96697.44;;;20.20;nan
23303;BME280;11820;48.738;9.092;2022-07-05T06:45:08;96700.41;;;20.28;nan
23303;BME280;11820;48.738;9.092;2022-07-05T06:47:34;96694.25;;;20.61;nan
23303;BME280;11820;48.738;9.092;2022-07-05T06:49:59;96695.41;;;20.48;nan
23303;BME280;11820;48.738;9.092;2022-07-05T06:52:24;96697.88;;;20.55;nan
23303;BME280;11820;48.738;9.092;2022-07-05T06:54:50;96696.06;;;20.55;nan
23303;BME280;11820;48.738;9.092;2022-07-05T06:57:22;96704.41;;;20.52;nan
23303;BME280;11820;48.738;9.092;2022-07-05T06:59:48;96701.38;;;20.60;nan
23303;BME280;11820;48.738;9.092;2022-07-05T07:02:14;96712.44;;;20.62;nan
23303;BME280;11820;48.738;9.092;2022-07-05T07:04:40;96705.41;;;20.68;nan
23303;BME280;11820;48.738;9.092;2022-07-05T07:07:05;96702.56;;;20.74;nan
23303;BME280;11820;48.738;9.092;2022-07-05T07:09:50;96706.28;;;20.78;nan
23303;BME280;11820;48.738;9.092;2022-07-05T07:12:16;96706.41;;;20.83;nan
23303;BME280;11820;48.738;9.092;2022-07-05T07:14:41;96713.72;;;20.81;nan
23303;BME280;11820;48.738;9.092;2022-07-05T07:17:06;96701.91;;;20.84;nan
23303;BME280;11820;48.738;9.092;2022-07-05T07:19:32;96707.03;;;20.95;nan
23303;BME280;11820;48.738;9.092;2022-07-05T07:21:57;96708.94;;;21.00;nan
23303;BME280;11820;48.738;9.092;2022-07-05T07:24:22;96704.75;;;21.30;nan
23303;BME280;11820;48.738;9.092;2022-07-05T07:26:48;96707.84;;;21.22;nan
23303;BME280;11820;48.738;9.092;2022-07-05T07:29:29;96710.94;;;21.14;nan
23303;BME280;11820;48.738;9.092;2022-07-05T07:31:58;96711.78;;;21.20;nan
23303;BME280;11820;48.738;9.092;2022-07-05T07:34:24;96709.97;;;21.51;nan
23303;BME280;11820;48.738;9.092;2022-07-05T07:36:51;96719.06;;;21.39;nan
23303;BME280;11820;48.738;9.092;2022-07-05T07:39:16;96716.97;;;21.41;nan
23303;BME280;11820;48.738;9.092;2022-07-05T07:41:42;96720.66;;;21.40;nan
23303;BME280;11820;48.738;9.092;2022-07-05T07:44:07;96723.25;;;21.35;nan
23303;BME280;11820;48.738;9.092;2022-07-05T07:46:32;96721.16;;;21.37;nan
23303;BME280;11820;48.738;9.092;2022-07-05T07:48:58;96719.09;;;21.44;nan
23303;BME280;11820;48.738;9.092;2022-07-05T07:51:24;96724.41;;;21.49;nan
23303;BME280;11820;48.738;9.092;2022-07-05T07:53:49;96720.22;;;21.53;nan
23303;BME280;11820;48.738;9.092;2022-07-05T07:56:15;96724.81;;;21.62;nan
23303;BME280;11820;48.738;9.092;2022-07-05T07:58:41;96729.84;;;21.64;nan
23303;BME280;11820;48.738;9.092;2022-07-05T08:01:06;96723.63;;;21.75;nan
23303;BME280;11820;48.738;9.092;2022-07-05T08:03:39;96725.22;;;21.81;nan
23303;BME280;11820;48.738;9.092;2022-07-05T08:06:04;96722.41;;;21.87;nan
23303;BME280;11820;48.738;9.092;2022-07-05T08:08:30;96728.38;;;21.78;nan
23303;BME280;11820;48.738;9.092;2022-07-05T08:10:55;96726.38;;;21.90;nan
23303;BME280;11820;48.738;9.092;2022-07-05T08:13:20;96724.47;;;21.85;nan
23303;BME280;11820;48.738;9.092;2022-07-05T08:15:46;96727.13;;;21.85;nan
23303;BME280;11820;48.738;9.092;2022-07-05T08:18:11;96735.91;;;22.01;nan
23303;BME280;11820;48.738;9.092;2022-07-05T08:20:55;96716.47;;;22.07;nan
23303;BME280;11820;48.738;9.092;2022-07-05T08:23:39;96729.03;;;21.95;nan
23303;BME280;11820;48.738;9.092;2022-07-05T08:26:04;96732.50;;;22.00;nan
23303;BME280;11820;48.738;9.092;2022-07-05T08:28:30;96725.91;;;21.98;nan
23303;BME280;11820;48.738;9.092;2022-07-05T08:30:55;96727.44;;;21.94;nan
23303;BME280;11820;48.738;9.092;2022-07-05T08:33:20;96721.25;;;22.10;nan
23303;BME280;11820;48.738;9.092;2022-07-05T08:35:45;96719.19;;;22.22;nan
23303;BME280;11820;48.738;9.092;2022-07-05T08:38:11;96723.19;;;22.24;nan
23303;BME280;11820;48.738;9.092;2022-07-05T08:40:39;96720.28;;;22.26;nan
23303;BME280;11820;48.738;9.092;2022-07-05T08:43:08;96718.47;;;22.31;nan
23303;BME280;11820;48.738;9.092;2022-07-05T08:45:35;96717.78;;;22.41;nan
23303;BME280;11820;48.738;9.092;2022-07-05T08:48:02;96718.75;;;22.35;nan
23303;BME280;11820;48.738;9.092;2022-07-05T08:50:29;96713.22;;;22.36;nan
23303;BME280;11820;48.738;9.092;2022-07-05T08:52:55;96716.44;;;22.43;nan
23303;BME280;11820;48.738;9.092;2022-07-05T08:55:21;96714.63;;;22.49;nan
23303;BME280;11820;48.738;9.092;2022-07-05T08:57:47;96714.97;;;22.62;nan
23303;BME280;11820;48.738;9.092;2022-07-05T09:00:12;96722.88;;;22.62;nan
23303;BME280;11820;48.738;9.092;2022-07-05T09:02:38;96720.50;;;22.61;nan
23303;BME280;11820;48.738;9.092;2022-07-05T09:05:04;96723.38;;;22.54;nan
23303;BME280;11820;48.738;9.092;2022-07-05T09:07:32;96715.28;;;22.76;nan
23303;BME280;11820;48.738;9.092;2022-07-05T09:10:03;96722.66;;;22.69;nan
23303;BME280;11820;48.738;9.092;2022-07-05T09:12:28;96724.22;;;22.70;nan
23303;BME280;11820;48.738;9.092;2022-07-05T09:14:54;96722.19;;;22.87;nan
23303;BME280;11820;48.738;9.092;2022-07-05T09:17:20;96718.50;;;22.88;nan
23303;BME280;11820;48.738;9.092;2022-07-05T09:20:10;96728.25;;;22.92;nan
23303;BME280;11820;48.738;9.092;2022-07-05T09:22:48;96726.94;;;22.90;nan
23303;BME280;11820;48.738;9.092;2022-07-05T09:25:29;96723.25;;;22.91;nan
23303;BME280;11820;48.738;9.092;2022-07-05T09:28:03;96729.69;;;23.19;nan
23303;BME280;11820;48.738;9.092;2022-07-05T09:33:12;96728.16;;;23.38;nan
23303;BME280;11820;48.738;9.092;2022-07-05T09:35:43;96732.38;;;23.49;nan
23303;BME280;11820;48.738;9.092;2022-07-05T09:38:20;96728.94;;;23.34;nan
23303;BME280;11820;48.738;9.092;2022-07-05T09:43:14;96738.44;;;23.30;nan
23303;BME280;11820;48.738;9.092;2022-07-05T09:45:49;96735.84;;;23.55;nan
23303;BME280;11820;48.738;9.092;2022-07-05T09:48:14;96736.09;;;23.68;nan
23303;BME280;11820;48.738;9.092;2022-07-05T09:50:42;96734.50;;;23.77;nan
23303;BME280;11820;48.738;9.092;2022-07-05T09:53:11;96729.50;;;23.56;nan
23303;BME280;11820;48.738;9.092;2022-07-05T09:55:37;96730.28;;;23.76;nan
23303;BME280;11820;48.738;9.092;2022-07-05T09:58:06;96729.25;;;24.07;nan
23303;BME280;11820;48.738;9.092;2022-07-05T10:00:32;96722.34;;;24.26;nan
23303;BME280;11820;48.738;9.092;2022-07-05T10:03:00;96731.28;;;24.45;nan
23303;BME280;11820;48.738;9.092;2022-07-05T10:05:31;96731.28;;;24.45;nan
23303;BME280;11820;48.738;9.092;2022-07-05T10:07:58;96724.91;;;24.61;nan
23303;BME280;11820;48.738;9.092;2022-07-05T10:10:33;96734.97;;;24.49;nan
23303;BME280;11820;48.738;9.092;2022-07-05T10:13:05;96732.88;;;24.36;nan
23303;BME280;11820;48.738;9.092;2022-07-05T10:15:35;96737.16;;;24.22;nan
23303;BME280;11820;48.738;9.092;2022-07-05T10:18:06;96734.00;;;24.20;nan
23303;BME280;11820;48.738;9.092;2022-07-05T10:20:41;96720.19;;;24.43;nan
23303;BME280;11820;48.738;9.092;2022-07-05T10:23:16;96730.75;;;24.53;nan
23303;BME280;11820;48.738;9.092;2022-07-05T10:25:46;96731.81;;;24.52;nan
23303;BME280;11820;48.738;9.092;2022-07-05T10:28:17;96725.94;;;24.75;nan
23303;BME280;11820;48.738;9.092;2022-07-05T10:30:49;96730.97;;;24.77;nan
23303;BME280;11820;48.738;9.092;2022-07-05T10:33:17;96738.59;;;24.83;nan
23303;BME280;11820;48.738;9.092;2022-07-05T10:35:46;96727.59;;;25.14;nan
23303;BME280;11820;48.738;9.092;2022-07-05T10:38:12;96732.75;;;24.86;nan
23303;BME280;11820;48.738;9.092;2022-07-05T10:40:40;96723.22;;;24.90;nan
23303;BME280;11820;48.738;9.092;2022-07-05T10:43:08;96713.03;;;25.17;nan
23303;BME280;11820;48.738;9.092;2022-07-05T10:45:38;96727.34;;;25.16;nan
23303;BME280;11820;48.738;9.092;2022-07-05T10:58:36;96717.59;;;25.50;nan
23303;BME280;11820;48.738;9.092;2022-07-05T11:03:46;96721.75;;;25.22;nan
23303;BME280;11820;48.738;9.092;2022-07-05T11:06:25;96730.25;;;25.14;nan
23303;BME280;11820;48.738;9.092;2022-07-05T11:11:29;96739.75;;;25.64;nan
23303;BME280;11820;48.738;9.092;2022-07-05T11:13:56;96733.97;;;25.95;nan
23303;BME280;11820;48.738;9.092;2022-07-05T11:19:05;96730.00;;;26.21;nan
23303;BME280;11820;48.738;9.092;2022-07-05T11:21:31;96725.28;;;26.42;nan
23303;BME280;11820;48.738;9.092;2022-07-05T11:26:45;96730.91;;;26.12;nan
23303;BME280;11820;48.738;9.092;2022-07-05T11:29:41;96734.66;;;26.06;nan
23303;BME280;11820;48.738;9.092;2022-07-05T11:34:37;96731.69;;;25.79;nan
23303;BME280;11820;48.738;9.092;2022-07-05T11:37:18;96730.72;;;25.70;nan
23303;BME280;11820;48.738;9.092;2022-07-05T11:39:45;96727.41;;;25.88;nan
23303;BME280;11820;48.738;9.092;2022-07-05T11:42:20;96722.59;;;25.90;nan
23303;BME280;11820;48.738;9.092;2022-07-05T11:44:49;96723.88;;;25.97;nan
23303;BME280;11820;48.738;9.092;2022-07-05T11:47:16;96719.38;;;25.98;nan
23303;BME280;11820;48.738;9.092;2022-07-05T11:50:01;96721.56;;;25.91;nan
23303;BME280;11820;48.738;9.092;2022-07-05T11:52:27;96714.06;;;25.98;nan
23303;BME280;11820;48.738;9.092;2022-07-05T11:54:53;96712.69;;;26.00;nan
23303;BME280;11820;48.738;9.092;2022-07-05T11:57:20;96710.38;;;26.22;nan
23303;BME280;11820;48.738;9.092;2022-07-05T11:59:46;96698.53;;;26.38;nan
23303;BME280;11820;48.738;9.092;2022-07-05T12:02:11;96693.56;;;26.32;nan
23303;BME280;11820;48.738;9.092;2022-07-05T12:04:37;96698.22;;;26.45;nan
23303;BME280;11820;48.738;9.092;2022-07-05T12:07:05;96701.84;;;26.54;nan
23303;BME280;11820;48.738;9.092;2022-07-05T12:09:32;96709.13;;;26.15;nan
23303;BME280;11820;48.738;9.092;2022-07-05T12:12:26;96705.13;;;26.69;nan
23303;BME280;11820;48.738;9.092;2022-07-05T12:15:16;96696.75;;;26.80;nan
23303;BME280;11820;48.738;9.092;2022-07-05T12:17:44;96690.97;;;26.55;nan
23303;BME280;11820;48.738;9.092;2022-07-05T12:20:13;96689.13;;;26.92;nan
23303;BME280;11820;48.738;9.092;2022-07-05T12:22:41;96687.84;;;27.32;nan
23303;BME280;11820;48.738;9.092;2022-07-05T12:25:10;96683.97;;;26.82;nan
23303;BME280;11820;48.738;9.092;2022-07-05T12:27:37;96691.03;;;26.22;nan
23303;BME280;11820;48.738;9.092;2022-07-05T12:30:07;96685.63;;;26.03;nan
23303;BME280;11820;48.738;9.092;2022-07-05T12:35:38;96687.97;;;26.10;nan
23303;BME280;11820;48.738;9.092;2022-07-05T12:38:15;96692.50;;;25.76;nan
23303;BME280;11820;48.738;9.092;2022-07-05T12:40:47;96690.88;;;25.80;nan
23303;BME280;11820;48.738;9.092;2022-07-05T12:43:14;96697.31;;;26.02;nan
23303;BME280;11820;48.738;9.092;2022-07-05T12:45:42;96692.25;;;26.58;nan
23303;BME280;11820;48.738;9.092;2022-07-05T12:48:08;96689.28;;;26.82;nan
23303;BME280;11820;48.738;9.092;2022-07-05T12:50:51;96686.06;;;27.04;nan
23303;BME280;11820;48.738;9.092;2022-07-05T12:53:18;96680.50;;;27.42;nan
23303;BME280;11820;48.738;9.092;2022-07-05T12:56:07;96682.84;;;27.62;nan
23303;BME280;11820;48.738;9.092;2022-07-05T13:01:20;96682.84;;;27.62;nan
23303;BME280;11820;48.738;9.092;2022-07-05T13:04:04;96676.97;;;27.97;nan
23303;BME280;11820;48.738;9.092;2022-07-05T13:09:35;96680.47;;;27.61;nan
23303;BME280;11820;48.738;9.092;2022-07-05T13:14:34;96686.44;;;26.97;nan
23303;BME280;11820;48.738;9.092;2022-07-05T13:17:00;96687.44;;;27.01;nan
23303;BME280;11820;48.738;9.092;2022-07-05T13:19:25;96688.94;;;26.89;nan
23303;BME280;11820;48.738;9.092;2022-07-05T13:21:51;96690.19;;;27.33;nan
23303;BME280;11820;48.738;9.092;2022-07-05T13:24:16;96685.09;;;27.37;nan
23303;BME280;11820;48.738;9.092;2022-07-05T13:26:41;96681.34;;;27.75;nan
23303;BME280;11820;48.738;9.092;2022-07-05T13:29:07;96675.78;;;28.03;nan
23303;BME280;11820;48.738;9.092;2022-07-05T13:31:32;96674.38;;;28.38;nan
23303;BME280;11820;48.738;9.092;2022-07-05T13:33:59;96675.16;;;28.38;nan
23303;BME280;11820;48.738;9.092;2022-07-05T13:36:25;96677.84;;;27.93;nan
23303;BME280;11820;48.738;9.092;2022-07-05T13:38:51;96678.94;;;28.05;nan
23303;BME280;11820;48.738;9.092;2022-07-05T13:41:16;96682.34;;;28.24;nan
23303;BME280;11820;48.738;9.092;2022-07-05T13:43:41;96674.66;;;28.63;nan
23303;BME280;11820;48.738;9.092;2022-07-05T13:46:09;96666.97;;;29.02;nan
23303;BME280;11820;48.738;9.092;2022-07-05T13:48:34;96668.72;;;29.06;nan
23303;BME280;11820;48.738;9.092;2022-07-05T13:51:00;96662.03;;;28.82;nan
23303;BME280;11820;48.738;9.092;2022-07-05T13:53:25;96669.41;;;28.85;nan
23303;BME280;11820;48.738;9.092;2022-07-05T13:55:50;96678.41;;;28.75;nan
23303;BME280;11820;48.738;9.092;2022-07-05T13:58:16;96668.88;;;32.16;nan
23303;BME280;11820;48.738;9.092;2022-07-05T14:00:41;96661.56;;;36.04;nan
23303;BME280;11820;48.738;9.092;2022-07-05T14:03:06;96655.00;;;39.86;nan
23303;BME280;11820;48.738;9.092;2022-07-05T14:05:32;96650.94;;;41.60;nan